createdAt,value
2023-05-10T00:01:14.616Z,4.94
2023-05-10T00:05:33.125Z,4.94
2023-05-10T00:09:50.885Z,5.06
2023-05-10T00:14:08.498Z,5.12
2023-05-10T00:18:26.190Z,5.16
2023-05-10T00:22:43.809Z,5.12
2023-05-10T00:27:02.190Z,4.99
2023-05-10T00:31:19.839Z,4.89
2023-05-10T00:35:40.259Z,4.84
2023-05-10T00:39:57.887Z,4.70
2023-05-10T00:44:15.621Z,4.56
2023-05-10T00:48:33.350Z,4.58
2023-05-10T00:52:51.739Z,4.49
2023-05-10T00:57:09.876Z,4.32
2023-05-10T01:01:27.745Z,4.23
2023-05-10T01:05:45.364Z,4.19
2023-05-10T01:10:03.419Z,4.26
2023-05-10T01:14:21.600Z,4.26
2023-05-10T01:18:43.399Z,4.19
2023-05-10T01:23:28.506Z,4.18
2023-05-10T01:28:39.868Z,4.13
2023-05-10T01:33:18.892Z,3.95
2023-05-10T01:37:58.183Z,3.87
2023-05-10T01:42:22.484Z,3.73
2023-05-10T01:46:41.562Z,3.59
2023-05-10T01:50:59.933Z,3.39
2023-05-10T01:55:21.657Z,3.18
2023-05-10T01:59:41.990Z,2.92
2023-05-10T02:04:01.306Z,2.66
2023-05-10T02:08:20.104Z,2.53
2023-05-10T02:12:43.517Z,2.42
2023-05-10T02:17:03.171Z,2.29
2023-05-10T02:21:23.824Z,2.22
2023-05-10T02:25:43.885Z,2.09
2023-05-10T02:30:02.693Z,2.09
2023-05-10T02:34:22.815Z,2.22
2023-05-10T02:38:41.753Z,2.54
2023-05-10T02:43:02.665Z,2.68
2023-05-10T02:47:21.123Z,2.99
2023-05-10T02:51:44.892Z,3.08
2023-05-10T02:56:08.301Z,2.88
2023-05-10T03:00:27.195Z,2.74
2023-05-10T03:04:45.010Z,2.60
2023-05-10T03:09:04.511Z,2.66
2023-05-10T03:13:37.657Z,2.64
2023-05-10T03:18:39.836Z,2.80
2023-05-10T03:23:27.899Z,2.91
2023-05-10T03:27:46.531Z,3.08
2023-05-10T03:32:04.475Z,3.20
2023-05-10T03:36:22.323Z,3.38
2023-05-10T03:40:40.634Z,3.47
2023-05-10T03:44:58.401Z,3.64
2023-05-10T03:49:15.870Z,3.84
2023-05-10T03:53:33.760Z,4.08
2023-05-10T03:57:51.391Z,4.25
2023-05-10T04:02:09.317Z,4.57
2023-05-10T04:06:27.149Z,4.74
2023-05-10T04:10:44.996Z,4.92
2023-05-10T04:15:02.833Z,5.06
2023-05-10T04:19:20.609Z,5.26
2023-05-10T04:23:39.595Z,5.48
2023-05-10T04:27:57.340Z,5.63
2023-05-10T04:32:15.056Z,5.81
2023-05-10T04:36:33.934Z,5.99
2023-05-10T04:40:52.007Z,6.25
2023-05-10T04:45:11.238Z,6.40
2023-05-10T04:49:29.279Z,6.61
2023-05-10T04:53:57.663Z,6.89
2023-05-10T04:58:22.799Z,7.08
2023-05-10T05:02:49.526Z,7.34
2023-05-10T05:07:07.276Z,7.61
2023-05-10T05:11:25.224Z,7.78
2023-05-10T05:15:42.900Z,8.08
2023-05-10T05:20:00.654Z,8.36
2023-05-10T05:24:18.318Z,8.57
2023-05-10T05:28:38.619Z,8.77
2023-05-10T05:32:56.355Z,9.02
2023-05-10T05:37:19.289Z,9.32
2023-05-10T05:41:37.014Z,9.64
2023-05-10T05:45:55.274Z,9.78
2023-05-10T05:50:13.009Z,10.05
2023-05-10T05:54:32.330Z,10.36
2023-05-10T05:58:50.848Z,10.60
2023-05-10T06:03:09.224Z,10.95
2023-05-10T06:07:26.983Z,11.16
2023-05-10T06:11:44.762Z,11.44
2023-05-10T06:16:04.074Z,11.70
2023-05-10T06:20:21.781Z,11.99
2023-05-10T06:24:39.388Z,12.25
2023-05-10T06:28:57.844Z,12.54
2023-05-10T06:33:17.145Z,12.73
2023-05-10T06:37:35.805Z,12.92
2023-05-10T06:41:53.689Z,13.14
2023-05-10T06:46:11.570Z,13.23
2023-05-10T06:50:28.675Z,13.46
2023-05-10T06:54:46.510Z,13.61
2023-05-10T06:59:04.273Z,13.80
2023-05-10T07:03:22.176Z,14.16
2023-05-10T07:07:39.933Z,14.16
2023-05-10T07:11:59.223Z,14.36
2023-05-10T07:16:16.934Z,14.59
2023-05-10T07:20:34.848Z,14.79
2023-05-10T07:24:52.766Z,14.70
2023-05-10T07:29:11.381Z,14.83
2023-05-10T07:33:28.997Z,15.09
2023-05-10T07:37:46.731Z,15.15
2023-05-10T07:42:04.502Z,15.36
2023-05-10T07:46:22.404Z,15.50
2023-05-10T07:50:40.100Z,15.65
2023-05-10T07:54:58.349Z,15.73
2023-05-10T07:59:18.234Z,15.70
2023-05-10T08:03:36.292Z,15.83
2023-05-10T08:07:53.872Z,15.95
2023-05-10T08:12:11.580Z,16.14
2023-05-10T08:16:30.180Z,16.04
2023-05-10T08:20:47.865Z,15.85
2023-05-10T08:25:06.565Z,16.08
2023-05-10T08:29:25.356Z,16.25
2023-05-10T08:33:45.948Z,16.69
2023-05-10T08:38:03.452Z,17.01
2023-05-10T08:42:26.278Z,17.24
2023-05-10T08:46:47.449Z,17.49
2023-05-10T08:51:05.729Z,18.00
2023-05-10T08:55:25.150Z,17.67
2023-05-10T08:59:42.917Z,18.14
2023-05-10T09:04:00.699Z,19.18
2023-05-10T09:08:18.994Z,19.69
2023-05-10T09:12:37.061Z,19.77
2023-05-10T09:16:56.699Z,19.28
2023-05-10T09:21:15.009Z,19.36
2023-05-10T09:25:34.942Z,19.80
2023-05-10T09:29:55.553Z,19.44
2023-05-10T09:34:20.717Z,20.17
2023-05-10T09:38:53.825Z,20.60
2023-05-10T09:43:12.372Z,21.85
2023-05-10T09:47:29.885Z,21.44
2023-05-10T09:51:48.011Z,21.28
2023-05-10T09:56:05.632Z,22.61
2023-05-10T10:00:23.330Z,22.65
2023-05-10T10:04:42.001Z,22.20
2023-05-10T10:09:00.217Z,22.62
2023-05-10T10:13:18.478Z,23.26
2023-05-10T10:17:39.880Z,24.82
2023-05-10T10:21:57.491Z,25.27
2023-05-10T10:26:16.660Z,24.19
2023-05-10T10:30:38.547Z,23.86
2023-05-10T10:34:57.948Z,24.84
2023-05-10T10:39:16.297Z,24.77
2023-05-10T10:43:34.127Z,25.80
2023-05-10T10:48:24.139Z,26.87
2023-05-10T10:52:43.620Z,26.40
2023-05-10T10:57:14.873Z,24.82
2023-05-10T11:01:36.795Z,28.22
2023-05-10T11:05:59.854Z,29.26
2023-05-10T11:10:22.543Z,29.99
2023-05-10T11:14:41.321Z,28.10
2023-05-10T11:19:09.544Z,28.76
2023-05-10T11:23:33.343Z,28.38
2023-05-10T11:27:51.546Z,29.67
2023-05-10T11:32:09.387Z,29.85
2023-05-10T11:36:37.613Z,28.52
2023-05-10T11:40:55.197Z,30.35
2023-05-10T11:45:13.197Z,27.16
2023-05-10T11:49:31.000Z,33.28
2023-05-10T11:53:48.934Z,30.89
2023-05-10T11:58:07.580Z,33.21
2023-05-10T12:02:26.002Z,33.22
2023-05-10T12:06:43.907Z,34.75
2023-05-10T12:11:11.834Z,34.34
2023-05-10T12:15:29.326Z,34.73
2023-05-10T12:19:47.715Z,34.72
2023-05-10T12:24:06.257Z,37.69
2023-05-10T12:28:24.147Z,37.22
2023-05-10T12:32:45.570Z,38.82
2023-05-10T12:37:05.399Z,37.69
2023-05-10T12:41:22.976Z,35.45
2023-05-10T12:45:40.788Z,38.15
2023-05-10T12:49:58.465Z,35.96
2023-05-10T12:54:16.157Z,36.45
2023-05-10T12:58:36.055Z,36.77
2023-05-10T13:02:54.862Z,38.29
2023-05-10T13:07:12.528Z,37.81
2023-05-10T13:11:30.288Z,42.75
2023-05-10T13:15:47.893Z,42.09
2023-05-10T13:20:06.278Z,38.70
2023-05-10T13:24:23.877Z,37.91
2023-05-10T13:28:41.965Z,38.55
2023-05-10T13:32:59.521Z,38.60
2023-05-10T13:37:17.407Z,40.65
2023-05-10T13:41:35.190Z,40.23
2023-05-10T13:45:53.699Z,40.21
2023-05-10T13:50:11.454Z,40.47
2023-05-10T13:54:31.640Z,36.39
2023-05-10T13:58:49.273Z,40.34
2023-05-10T14:03:08.196Z,38.93
2023-05-10T14:07:25.824Z,34.60
2023-05-10T14:11:44.561Z,30.51
2023-05-10T14:16:02.283Z,35.81
2023-05-10T14:20:20.017Z,39.20
2023-05-10T14:24:39.524Z,37.70
2023-05-10T14:28:57.520Z,37.46
2023-05-10T14:33:15.546Z,42.85
2023-05-10T14:37:33.866Z,40.95
2023-05-10T14:41:52.640Z,41.12
2023-05-10T14:46:10.593Z,40.88
2023-05-10T14:50:36.503Z,38.93
2023-05-10T14:54:55.133Z,39.85
2023-05-10T14:59:12.646Z,39.72
2023-05-10T15:03:31.774Z,38.19
2023-05-10T15:07:49.852Z,41.77
2023-05-10T15:12:07.644Z,39.81
2023-05-10T15:16:25.515Z,40.68
2023-05-10T15:20:43.372Z,37.91
2023-05-10T15:25:00.962Z,40.61
2023-05-10T15:29:21.290Z,39.65
2023-05-10T15:33:39.753Z,38.21
2023-05-10T15:37:57.601Z,36.26
2023-05-10T15:42:15.163Z,40.95
2023-05-10T15:46:32.750Z,39.14
2023-05-10T15:50:50.585Z,36.89
2023-05-10T15:55:13.347Z,37.64
2023-05-10T15:59:31.148Z,35.06
2023-05-10T16:03:48.968Z,35.35
2023-05-10T16:08:06.538Z,35.71
2023-05-10T16:12:23.929Z,35.79
2023-05-10T16:16:41.614Z,34.92
2023-05-10T16:20:59.726Z,33.53
2023-05-10T16:25:17.385Z,33.90
2023-05-10T16:29:35.396Z,33.41
2023-05-10T16:33:53.025Z,32.97
2023-05-10T16:38:11.616Z,28.91
2023-05-10T16:42:29.245Z,30.52
2023-05-10T16:46:47.245Z,28.76
2023-05-10T16:51:04.950Z,28.45
2023-05-10T16:55:25.473Z,26.91
2023-05-10T16:59:44.050Z,25.02
2023-05-10T17:04:03.000Z,22.53
2023-05-10T17:08:21.855Z,24.50
2023-05-10T17:12:39.585Z,23.96
2023-05-10T17:16:57.343Z,25.27
2023-05-10T17:21:15.140Z,24.08
2023-05-10T17:25:32.722Z,24.23
2023-05-10T17:29:50.405Z,22.75
2023-05-10T17:34:08.311Z,21.32
2023-05-10T17:38:26.194Z,19.67
2023-05-10T17:42:43.925Z,17.40
2023-05-10T17:47:02.241Z,15.69
2023-05-10T17:51:20.879Z,14.85
2023-05-10T17:55:42.396Z,14.28
2023-05-10T18:00:00.220Z,13.91
2023-05-10T18:04:18.038Z,13.51
2023-05-10T18:08:38.790Z,13.22
2023-05-10T18:12:58.720Z,13.01
2023-05-10T18:17:16.714Z,12.71
2023-05-10T18:21:34.554Z,12.70
2023-05-10T18:25:52.625Z,12.81
2023-05-10T18:30:12.601Z,12.65
2023-05-10T18:34:30.387Z,12.44
2023-05-10T18:38:48.123Z,12.30
2023-05-10T18:43:23.771Z,12.14
2023-05-10T18:47:41.537Z,12.02
2023-05-10T18:51:59.411Z,11.95
2023-05-10T18:56:17.040Z,11.84
2023-05-10T19:00:34.774Z,11.71
2023-05-10T19:04:52.516Z,11.59
2023-05-10T19:09:10.278Z,11.54
2023-05-10T19:13:29.034Z,11.33
2023-05-10T19:17:46.797Z,11.32
2023-05-10T19:22:04.837Z,11.30
2023-05-10T19:26:22.714Z,11.11
2023-05-10T19:30:40.233Z,11.03
2023-05-10T19:34:58.053Z,10.94
2023-05-10T19:39:16.856Z,10.75
2023-05-10T19:43:37.002Z,10.73
2023-05-10T19:47:54.966Z,10.75
2023-05-10T19:52:12.848Z,10.68
2023-05-10T19:56:33.442Z,10.56
2023-05-10T20:00:51.282Z,10.61
2023-05-10T20:05:09.349Z,10.46
2023-05-10T20:09:27.202Z,10.41
2023-05-10T20:13:44.753Z,10.30
2023-05-10T20:18:03.934Z,10.25
2023-05-10T20:22:21.549Z,10.32
2023-05-10T20:26:39.369Z,10.09
2023-05-10T20:30:56.908Z,10.12
2023-05-10T20:35:14.543Z,9.87
2023-05-10T20:39:32.081Z,9.87
2023-05-10T20:43:49.835Z,9.75
2023-05-10T20:48:07.906Z,9.74
2023-05-10T20:52:25.608Z,9.78
2023-05-10T20:56:43.203Z,9.72
2023-05-10T21:01:02.563Z,9.72
2023-05-10T21:05:20.191Z,9.68
2023-05-10T21:09:37.981Z,9.58
2023-05-10T21:13:55.502Z,9.57
2023-05-10T21:18:13.677Z,9.44
2023-05-10T21:22:31.090Z,9.47
2023-05-10T21:26:48.789Z,9.30
2023-05-10T21:31:06.716Z,9.29
2023-05-10T21:35:24.360Z,9.30
2023-05-10T21:39:41.839Z,9.32
2023-05-10T21:43:59.556Z,9.32
2023-05-10T21:48:17.536Z,9.27
2023-05-10T21:52:35.193Z,9.16
2023-05-10T21:56:53.045Z,9.13
2023-05-10T22:01:10.886Z,9.01
2023-05-10T22:05:28.398Z,8.95
2023-05-10T22:09:46.133Z,8.98
2023-05-10T22:14:03.712Z,8.88
2023-05-10T22:18:21.552Z,8.74
2023-05-10T22:22:39.161Z,8.68
2023-05-10T22:26:56.777Z,8.64
2023-05-10T22:31:14.617Z,8.63
2023-05-10T22:35:32.263Z,8.50
2023-05-10T22:39:50.069Z,8.44
2023-05-10T22:44:08.626Z,8.26
2023-05-10T22:48:26.278Z,8.22
2023-05-10T22:52:44.037Z,8.13
2023-05-10T22:57:01.606Z,8.09
2023-05-10T23:01:19.389Z,7.84
2023-05-10T23:05:36.975Z,7.75
2023-05-10T23:09:54.668Z,7.74
2023-05-10T23:14:12.177Z,7.75
2023-05-10T23:18:31.093Z,7.62
2023-05-10T23:22:49.740Z,7.62
2023-05-10T23:27:07.808Z,7.64
2023-05-10T23:31:25.332Z,7.50
2023-05-10T23:35:42.941Z,7.43
2023-05-10T23:40:00.468Z,7.57
2023-05-10T23:44:19.181Z,7.60
2023-05-10T23:48:36.423Z,7.55
2023-05-10T23:52:54.489Z,7.53
2023-05-10T23:57:14.972Z,7.42
